Time;durP1;ratioP1;P1;durP2;ratioP2;P2;SDS_P1;SDS_P2;PMS_P1;PMS_P2;Temp;Humidity;BMP_temperature;BMP_pressure;BME280_temperature;BME280_humidity;BME280_pressure;Samples;Min_cycle;Max_cycle;Signal;HPM_P1;HPM_P2
2023/03/01 00:02:04;;;;;;;;;;;1.00;99.90;;;;;;4932003;29;19927;-77
2023/03/01 00:04:31;;;;;;;;;;;1.00;99.90;;;;;;4908089;29;19927;-77
2023/03/01 00:06:59;;;;;;;;;;;1.00;99.90;;;;;;4936706;29;19937;-79
2023/03/01 00:09:26;;;;;;;;;;;1.00;99.90;;;;;;4935900;29;19927;-78
2023/03/01 00:11:53;;;;;;;;;;;0.90;99.90;;;;;;4920226;29;20302;-78
2023/03/01 00:14:21;;;;;;;;;;;0.90;99.90;;;;;;4914738;29;19981;-78
2023/03/01 00:16:48;;;;;;;;;;;1.00;99.90;;;;;;4924983;29;19926;-77
2023/03/01 00:19:21;;;;;;;;;;;1.00;99.90;;;;;;4926580;29;19931;-79
2023/03/01 00:21:49;;;;;;;;;;;0.90;99.90;;;;;;4918199;29;19934;-78
2023/03/01 00:24:16;;;;;;;;;;;0.90;99.90;;;;;;4909043;29;19933;-78
2023/03/01 00:26:43;;;;;;;;;;;1.00;99.90;;;;;;4913929;29;19926;-77
2023/03/01 00:29:13;;;;;;;;;;;0.90;99.90;;;;;;4902463;29;19931;-79
2023/03/01 00:31:41;;;;;;;;;;;0.90;99.90;;;;;;4909871;29;19927;-78
2023/03/01 00:34:08;;;;;;;;;;;0.90;99.90;;;;;;4919410;29;19931;-77
2023/03/01 00:36:37;;;;;;;;;;;0.90;99.90;;;;;;4915247;29;19949;-76
2023/03/01 00:39:05;;;;;;;;;;;0.90;99.90;;;;;;4910631;29;19950;-76
2023/03/01 00:41:33;;;;;;;;;;;0.90;99.90;;;;;;4930533;29;20390;-77
2023/03/01 00:44:00;;;;;;;;;;;0.90;99.90;;;;;;4925529;29;19927;-76
2023/03/01 00:46:27;;;;;;;;;;;0.90;99.90;;;;;;4909345;29;19927;-77
2023/03/01 00:48:55;;;;;;;;;;;0.90;99.90;;;;;;4907498;29;19931;-77
2023/03/01 00:51:23;;;;;;;;;;;0.90;99.90;;;;;;4900542;29;19975;-77
2023/03/01 00:53:52;;;;;;;;;;;0.90;99.90;;;;;;4928051;29;19934;-76
2023/03/01 00:56:19;;;;;;;;;;;0.90;99.90;;;;;;4918555;29;19935;-76
2023/03/01 00:58:46;;;;;;;;;;;0.90;99.90;;;;;;4923086;29;19927;-76
2023/03/01 01:01:17;;;;;;;;;;;0.90;99.90;;;;;;4901701;29;19927;-77
2023/03/01 01:03:45;;;;;;;;;;;0.90;99.90;;;;;;4923434;29;19935;-77
2023/03/01 01:06:18;;;;;;;;;;;0.90;99.90;;;;;;4907524;29;20365;-76
2023/03/01 01:08:45;;;;;;;;;;;0.90;99.90;;;;;;4904583;29;20030;-76
2023/03/01 01:11:12;;;;;;;;;;;0.90;99.90;;;;;;4907675;29;20398;-76
2023/03/01 01:13:39;;;;;;;;;;;0.90;99.90;;;;;;4911760;29;19997;-75
2023/03/01 01:16:07;;;;;;;;;;;0.90;99.90;;;;;;4906840;29;20422;-76
2023/03/01 01:18:36;;;;;;;;;;;0.90;99.90;;;;;;4904435;29;19931;-76
2023/03/01 01:21:07;;;;;;;;;;;0.90;99.90;;;;;;4903476;29;20006;-76
2023/03/01 01:23:35;;;;;;;;;;;0.90;99.90;;;;;;4916587;29;19931;-77
2023/03/01 01:26:06;;;;;;;;;;;0.90;99.90;;;;;;4905041;29;20037;-77
2023/03/01 01:28:33;;;;;;;;;;;0.90;99.90;;;;;;4898514;29;20026;-76
2023/03/01 01:31:00;;;;;;;;;;;0.90;99.90;;;;;;4907154;29;19931;-77
2023/03/01 01:33:27;;;;;;;;;;;0.90;99.90;;;;;;4898671;29;19931;-76
2023/03/01 01:35:54;;;;;;;;;;;0.90;99.90;;;;;;4910793;29;20380;-77
2023/03/01 01:38:21;;;;;;;;;;;0.90;99.90;;;;;;4904102;29;19935;-77
2023/03/01 01:40:50;;;;;;;;;;;0.90;99.90;;;;;;4921265;29;19930;-77
2023/03/01 01:43:20;;;;;;;;;;;0.90;99.90;;;;;;4901529;29;20454;-76
2023/03/01 01:45:47;;;;;;;;;;;0.90;99.90;;;;;;4901866;29;19927;-76
2023/03/01 01:48:16;;;;;;;;;;;0.90;99.90;;;;;;4900427;29;19983;-76
2023/03/01 01:50:44;;;;;;;;;;;0.90;99.90;;;;;;4919549;29;19959;-77
2023/03/01 01:53:14;;;;;;;;;;;0.90;99.90;;;;;;4915047;29;19927;-75
2023/03/01 01:55:42;;;;;;;;;;;0.90;99.90;;;;;;4901542;29;19935;-76
2023/03/01 01:58:11;;;;;;;;;;;0.90;99.90;;;;;;4916841;29;19927;-77
2023/03/01 02:00:39;;;;;;;;;;;0.90;99.90;;;;;;4904206;29;20029;-75
2023/03/01 02:03:09;;;;;;;;;;;0.90;99.90;;;;;;4901230;29;19981;-77
2023/03/01 02:05:39;;;;;;;;;;;0.90;99.90;;;;;;4904074;28;19937;-76
2023/03/01 02:08:06;;;;;;;;;;;0.90;99.90;;;;;;4902777;29;20301;-75
2023/03/01 02:10:35;;;;;;;;;;;0.90;99.90;;;;;;4914946;29;19927;-75
2023/03/01 02:13:03;;;;;;;;;;;0.80;99.90;;;;;;4916950;29;20419;-75
2023/03/01 02:15:33;;;;;;;;;;;0.80;99.90;;;;;;4917324;29;19938;-75
2023/03/01 02:18:02;;;;;;;;;;;0.90;99.90;;;;;;4845470;29;1851302;-75
2023/03/01 02:20:33;;;;;;;;;;;0.90;99.90;;;;;;4896428;29;20022;-75
2023/03/01 02:23:00;;;;;;;;;;;0.90;99.90;;;;;;4911793;29;19927;-75
2023/03/01 02:25:31;;;;;;;;;;;0.90;99.90;;;;;;4904854;29;19927;-74
2023/03/01 02:28:00;;;;;;;;;;;0.80;99.90;;;;;;4919255;29;19962;-76
2023/03/01 02:30:29;;;;;;;;;;;0.80;99.90;;;;;;4894575;29;19935;-75
2023/03/01 02:33:02;;;;;;;;;;;0.90;99.90;;;;;;4899577;29;19934;-76
2023/03/01 02:35:30;;;;;;;;;;;0.80;99.90;;;;;;4917956;29;19923;-77
2023/03/01 02:38:00;;;;;;;;;;;0.80;99.90;;;;;;4901869;29;19927;-76
2023/03/01 02:40:29;;;;;;;;;;;0.90;99.90;;;;;;4899594;29;19927;-76
2023/03/01 02:42:57;;;;;;;;;;;0.80;99.90;;;;;;4901372;29;19934;-76
2023/03/01 02:45:24;;;;;;;;;;;0.80;99.90;;;;;;4912865;29;19983;-76
2023/03/01 02:47:54;;;;;;;;;;;0.80;99.90;;;;;;4908197;29;19953;-76
2023/03/01 02:50:25;;;;;;;;;;;0.80;99.90;;;;;;4929099;29;20025;-76
2023/03/01 02:52:56;;;;;;;;;;;0.80;99.90;;;;;;4905967;29;19950;-76
2023/03/01 02:55:25;;;;;;;;;;;0.80;99.90;;;;;;4927112;29;19927;-76
2023/03/01 02:57:52;;;;;;;;;;;0.80;99.90;;;;;;4906219;29;21254;-77
2023/03/01 03:00:20;;;;;;;;;;;0.80;99.90;;;;;;4913170;29;20314;-77
2023/03/01 03:02:48;;;;;;;;;;;0.80;99.90;;;;;;4911022;29;19938;-78
2023/03/01 03:05:20;;;;;;;;;;;0.80;99.90;;;;;;4905063;29;19927;-76
2023/03/01 03:07:49;;;;;;;;;;;0.80;99.90;;;;;;4908342;29;19926;-76
2023/03/01 03:10:19;;;;;;;;;;;0.80;99.90;;;;;;4911846;29;19952;-76
2023/03/01 03:12:49;;;;;;;;;;;0.80;99.90;;;;;;4907493;29;19927;-76
2023/03/01 03:15:16;;;;;;;;;;;0.90;99.90;;;;;;4909270;29;20397;-76
2023/03/01 03:17:43;;;;;;;;;;;0.80;99.90;;;;;;4911820;29;19933;-79
2023/03/01 03:20:11;;;;;;;;;;;0.80;99.90;;;;;;4930362;29;19927;-78
2023/03/01 03:22:40;;;;;;;;;;;0.80;99.90;;;;;;4935360;29;19935;-79
2023/03/01 03:25:10;;;;;;;;;;;0.80;99.90;;;;;;4912805;29;19935;-76
2023/03/01 03:27:37;;;;;;;;;;;0.80;99.90;;;;;;4931552;29;19970;-77
2023/03/01 03:30:08;;;;;;;;;;;0.80;99.90;;;;;;4935455;29;19930;-77
2023/03/01 03:32:36;;;;;;;;;;;0.80;99.90;;;;;;4913547;29;19933;-77
2023/03/01 03:35:03;;;;;;;;;;;0.80;99.90;;;;;;4905692;29;19935;-75
2023/03/01 03:40:15;;;;;;;;;;;0.80;99.90;;;;;;4922840;29;19927;-77
2023/03/01 03:42:42;;;;;;;;;;;0.80;99.90;;;;;;4914243;29;19982;-78
2023/03/01 03:45:09;;;;;;;;;;;0.80;99.90;;;;;;4932343;29;19930;-76
2023/03/01 03:47:36;;;;;;;;;;;0.80;99.90;;;;;;4931216;29;20501;-76
2023/03/01 03:50:03;;;;;;;;;;;0.80;99.90;;;;;;4922032;29;19971;-76
2023/03/01 03:52:30;;;;;;;;;;;0.80;99.90;;;;;;4905781;29;20416;-76
2023/03/01 03:54:56;;;;;;;;;;;0.80;99.90;;;;;;4913697;29;20028;-76
2023/03/01 03:57:25;;;;;;;;;;;0.80;99.90;;;;;;4901975;29;19958;-77
2023/03/01 03:59:52;;;;;;;;;;;0.80;99.90;;;;;;4922430;29;19970;-76
2023/03/01 04:02:22;;;;;;;;;;;0.80;99.90;;;;;;4921398;29;19946;-76
2023/03/01 04:04:50;;;;;;;;;;;0.80;99.90;;;;;;4908563;29;19934;-76
2023/03/01 04:07:17;;;;;;;;;;;0.80;99.90;;;;;;4906017;29;19987;-77
2023/03/01 04:09:44;;;;;;;;;;;0.80;99.90;;;;;;4925841;29;20468;-76
2023/03/01 04:12:11;;;;;;;;;;;0.80;99.90;;;;;;4908142;29;20033;-76
2023/03/01 04:14:39;;;;;;;;;;;0.80;99.90;;;;;;4915630;29;19926;-76
2023/03/01 04:17:06;;;;;;;;;;;0.80;99.90;;;;;;4907650;29;19962;-76
2023/03/01 04:19:35;;;;;;;;;;;0.80;99.90;;;;;;4918548;29;20410;-79
2023/03/01 04:22:09;;;;;;;;;;;0.80;99.90;;;;;;4919840;29;20020;-76
2023/03/01 04:24:35;;;;;;;;;;;0.80;99.90;;;;;;4914440;29;20396;-77
2023/03/01 04:27:03;;;;;;;;;;;0.80;99.90;;;;;;4916759;29;19953;-76
2023/03/01 04:29:30;;;;;;;;;;;0.80;99.90;;;;;;4908137;29;19934;-77
2023/03/01 04:31:58;;;;;;;;;;;0.80;99.90;;;;;;4907920;29;19999;-76
2023/03/01 04:34:26;;;;;;;;;;;0.80;99.90;;;;;;4920873;29;20014;-76
2023/03/01 04:36:53;;;;;;;;;;;0.80;99.90;;;;;;4914744;29;20024;-76
2023/03/01 04:39:20;;;;;;;;;;;0.80;99.90;;;;;;4922755;29;19966;-77
2023/03/01 04:41:47;;;;;;;;;;;0.80;99.90;;;;;;4906537;29;19986;-76
2023/03/01 04:44:14;;;;;;;;;;;0.80;99.90;;;;;;4925840;29;19970;-77
2023/03/01 04:46:40;;;;;;;;;;;0.80;99.90;;;;;;4923909;29;19982;-76
2023/03/01 04:49:09;;;;;;;;;;;0.80;99.90;;;;;;4908669;29;19926;-77
2023/03/01 04:51:35;;;;;;;;;;;0.80;99.90;;;;;;4931392;29;19962;-76
2023/03/01 04:54:03;;;;;;;;;;;0.80;99.90;;;;;;4922499;29;19935;-75
2023/03/01 04:56:30;;;;;;;;;;;0.80;99.90;;;;;;4934791;29;19927;-76
2023/03/01 04:58:57;;;;;;;;;;;0.80;99.90;;;;;;4919362;29;19959;-78
2023/03/01 05:01:24;;;;;;;;;;;0.80;99.90;;;;;;4927943;29;19934;-76
2023/03/01 05:03:52;;;;;;;;;;;0.80;99.90;;;;;;4925239;29;19926;-77
2023/03/01 05:06:20;;;;;;;;;;;0.80;99.90;;;;;;4924265;29;20018;-77
2023/03/01 05:08:47;;;;;;;;;;;0.80;99.90;;;;;;4909611;29;19935;-78
2023/03/01 05:11:14;;;;;;;;;;;0.80;99.90;;;;;;4923019;29;19933;-76
2023/03/01 05:13:41;;;;;;;;;;;0.80;99.90;;;;;;4925977;29;19926;-77
2023/03/01 05:16:10;;;;;;;;;;;0.80;99.90;;;;;;4926630;29;19927;-77
2023/03/01 05:18:38;;;;;;;;;;;0.80;99.90;;;;;;4925977;29;19927;-77
2023/03/01 05:21:06;;;;;;;;;;;0.80;99.90;;;;;;4930531;29;19982;-77
2023/03/01 05:23:34;;;;;;;;;;;0.80;99.90;;;;;;4909127;29;19934;-76
2023/03/01 05:26:03;;;;;;;;;;;0.80;99.90;;;;;;4922207;29;20029;-78
2023/03/01 05:28:30;;;;;;;;;;;0.80;99.90;;;;;;4903468;29;20006;-76
2023/03/01 05:30:57;;;;;;;;;;;0.80;99.90;;;;;;4924067;29;19931;-77
2023/03/01 05:33:24;;;;;;;;;;;0.80;99.90;;;;;;4909393;29;20740;-76
2023/03/01 05:35:53;;;;;;;;;;;0.80;99.90;;;;;;4923893;29;19934;-78
2023/03/01 05:38:20;;;;;;;;;;;0.80;99.90;;;;;;4904343;29;20473;-75
2023/03/01 05:40:49;;;;;;;;;;;0.80;99.90;;;;;;4921339;29;19931;-76
2023/03/01 05:43:16;;;;;;;;;;;0.80;99.90;;;;;;4924647;29;19962;-77
2023/03/01 05:45:43;;;;;;;;;;;0.80;99.90;;;;;;4926290;29;19927;-76
2023/03/01 05:48:11;;;;;;;;;;;0.80;99.90;;;;;;4916768;29;19970;-76
2023/03/01 05:50:39;;;;;;;;;;;0.80;99.90;;;;;;4919178;29;19937;-75
2023/03/01 05:53:08;;;;;;;;;;;0.80;99.90;;;;;;4916899;29;19991;-76
2023/03/01 05:55:35;;;;;;;;;;;0.70;99.90;;;;;;4916340;29;20382;-77
2023/03/01 05:58:05;;;;;;;;;;;0.80;99.90;;;;;;4905522;29;19974;-77
2023/03/01 06:00:33;;;;;;;;;;;0.80;99.90;;;;;;4916371;29;19999;-78
2023/03/01 06:03:00;;;;;;;;;;;0.80;99.90;;;;;;4926521;29;19927;-80
2023/03/01 06:05:27;;;;;;;;;;;0.80;99.90;;;;;;4926302;29;20306;-75
2023/03/01 06:07:55;;;;;;;;;;;0.70;99.90;;;;;;4924365;29;19927;-77
2023/03/01 06:10:22;;;;;;;;;;;0.80;99.90;;;;;;4925338;29;19997;-78
2023/03/01 06:12:49;;;;;;;;;;;0.70;99.90;;;;;;4913803;29;19927;-79
2023/03/01 06:15:17;;;;;;;;;;;0.80;99.90;;;;;;4915877;29;19970;-78
2023/03/01 06:17:45;;;;;;;;;;;0.80;99.90;;;;;;4927124;29;19937;-77
2023/03/01 06:20:14;;;;;;;;;;;0.70;99.90;;;;;;4932479;29;19930;-78
2023/03/01 06:22:41;;;;;;;;;;;0.80;99.90;;;;;;4905307;29;19962;-79
2023/03/01 06:25:09;;;;;;;;;;;0.70;99.90;;;;;;4921733;29;19931;-77
2023/03/01 06:27:36;;;;;;;;;;;0.70;99.90;;;;;;4906024;29;19934;-79
2023/03/01 06:30:03;;;;;;;;;;;0.70;99.90;;;;;;4907393;29;19994;-78
2023/03/01 06:32:31;;;;;;;;;;;0.70;99.90;;;;;;4925979;29;19933;-77
2023/03/01 06:34:59;;;;;;;;;;;0.70;99.90;;;;;;4911831;29;20390;-77
2023/03/01 06:37:26;;;;;;;;;;;0.70;99.90;;;;;;4921733;29;19931;-78
2023/03/01 06:39:53;;;;;;;;;;;0.70;99.90;;;;;;4908117;29;20401;-77
2023/03/01 06:42:20;;;;;;;;;;;0.70;99.90;;;;;;4909513;29;19930;-77
2023/03/01 06:44:47;;;;;;;;;;;0.70;99.90;;;;;;4920377;29;19962;-77
2023/03/01 06:47:14;;;;;;;;;;;0.70;99.90;;;;;;4910656;29;20097;-77
2023/03/01 06:49:42;;;;;;;;;;;0.70;99.90;;;;;;4905184;29;20398;-78
2023/03/01 06:52:09;;;;;;;;;;;0.70;99.90;;;;;;4907472;29;19934;-78
2023/03/01 06:54:36;;;;;;;;;;;0.70;99.90;;;;;;4922820;29;20393;-78
2023/03/01 06:57:03;;;;;;;;;;;0.70;99.90;;;;;;4911569;29;20654;-77
2023/03/01 06:59:31;;;;;;;;;;;0.70;99.90;;;;;;4926383;29;19927;-78
2023/03/01 07:01:58;;;;;;;;;;;0.70;99.90;;;;;;4908400;29;20014;-79
2023/03/01 07:04:25;;;;;;;;;;;0.70;99.90;;;;;;4910199;29;19928;-78
2023/03/01 07:06:54;;;;;;;;;;;0.70;99.90;;;;;;4936647;29;19933;-79
2023/03/01 07:09:22;;;;;;;;;;;0.70;99.90;;;;;;4921752;29;20316;-79
2023/03/01 07:11:49;;;;;;;;;;;0.60;99.90;;;;;;4915245;29;20421;-79
2023/03/01 07:14:16;;;;;;;;;;;0.70;99.90;;;;;;4927223;29;19966;-79
2023/03/01 07:16:43;;;;;;;;;;;0.70;99.90;;;;;;4923940;29;19969;-79
2023/03/01 07:19:10;;;;;;;;;;;0.70;99.90;;;;;;4922959;29;19926;-79
2023/03/01 07:21:38;;;;;;;;;;;0.70;99.90;;;;;;4924426;29;19954;-78
2023/03/01 07:24:07;;;;;;;;;;;0.70;99.90;;;;;;4926097;29;19927;-77
2023/03/01 07:26:34;;;;;;;;;;;0.70;99.90;;;;;;4920468;29;20026;-79
2023/03/01 07:29:01;;;;;;;;;;;0.70;99.90;;;;;;4920913;29;20034;-78
2023/03/01 07:31:28;;;;;;;;;;;0.60;99.90;;;;;;4907734;29;20010;-80
2023/03/01 07:33:55;;;;;;;;;;;0.70;99.90;;;;;;4934237;29;19927;-78
2023/03/01 07:36:22;;;;;;;;;;;0.60;99.90;;;;;;4920099;29;19962;-79
2023/03/01 07:38:49;;;;;;;;;;;0.60;99.90;;;;;;4902590;29;20393;-77
2023/03/01 07:41:18;;;;;;;;;;;0.60;99.90;;;;;;4914746;29;20022;-77
2023/03/01 07:43:44;;;;;;;;;;;0.70;99.90;;;;;;4920593;29;19931;-77
2023/03/01 07:46:11;;;;;;;;;;;0.60;99.90;;;;;;4911149;29;20477;-78
2023/03/01 07:48:38;;;;;;;;;;;0.60;99.90;;;;;;4930994;29;19953;-77
2023/03/01 07:51:06;;;;;;;;;;;0.60;99.90;;;;;;4906822;29;19931;-78
2023/03/01 07:53:33;;;;;;;;;;;0.60;99.90;;;;;;4910465;29;19931;-77
2023/03/01 07:56:04;;;;;;;;;;;0.60;99.90;;;;;;4923073;29;19933;-78
2023/03/01 07:58:34;;;;;;;;;;;0.60;99.90;;;;;;4917040;29;19931;-78
2023/03/01 08:01:02;;;;;;;;;;;0.60;99.90;;;;;;4930394;29;19926;-78
2023/03/01 08:03:29;;;;;;;;;;;0.60;99.90;;;;;;4926922;29;19934;-78
2023/03/01 08:05:56;;;;;;;;;;;0.60;99.90;;;;;;4923225;29;19931;-78
2023/03/01 08:08:23;;;;;;;;;;;0.60;99.90;;;;;;4929470;29;19957;-78
2023/03/01 08:10:49;;;;;;;;;;;0.60;99.90;;;;;;4906804;29;19928;-77
2023/03/01 08:13:22;;;;;;;;;;;0.60;99.90;;;;;;4923378;29;20408;-77
2023/03/01 08:15:50;;;;;;;;;;;0.60;99.90;;;;;;4921941;29;20010;-77
2023/03/01 08:18:17;;;;;;;;;;;0.60;99.90;;;;;;4925728;29;19927;-78
2023/03/01 08:20:44;;;;;;;;;;;0.60;99.90;;;;;;4930100;29;19933;-78
2023/03/01 08:23:11;;;;;;;;;;;0.60;99.90;;;;;;4914393;29;19927;-77
2023/03/01 08:25:38;;;;;;;;;;;0.60;99.90;;;;;;4928197;29;19927;-78
2023/03/01 08:28:05;;;;;;;;;;;0.60;99.90;;;;;;4915522;29;19937;-77
2023/03/01 08:30:32;;;;;;;;;;;0.60;99.90;;;;;;4928046;29;20017;-77
2023/03/01 08:33:00;;;;;;;;;;;0.60;99.90;;;;;;4936538;29;19931;-77
2023/03/01 08:35:27;;;;;;;;;;;0.60;99.90;;;;;;4912468;29;19949;-78
2023/03/01 08:37:54;;;;;;;;;;;0.60;99.90;;;;;;4933946;29;19937;-78
2023/03/01 08:40:21;;;;;;;;;;;0.60;99.90;;;;;;4929109;29;19934;-77
2023/03/01 08:42:48;;;;;;;;;;;0.60;99.90;;;;;;4933629;29;20367;-78
2023/03/01 08:45:18;;;;;;;;;;;0.60;99.90;;;;;;4927798;29;19931;-78
2023/03/01 08:47:45;;;;;;;;;;;0.60;99.90;;;;;;4916483;29;19930;-78
2023/03/01 08:50:13;;;;;;;;;;;0.60;99.90;;;;;;4928391;29;20377;-78
2023/03/01 08:52:40;;;;;;;;;;;0.60;99.90;;;;;;4909667;29;19938;-77
2023/03/01 08:55:07;;;;;;;;;;;0.60;99.90;;;;;;4911522;29;19990;-78
2023/03/01 08:57:34;;;;;;;;;;;0.60;99.90;;;;;;4928954;29;19931;-78
2023/03/01 09:00:03;;;;;;;;;;;0.60;99.90;;;;;;4930698;29;19926;-78
2023/03/01 09:02:30;;;;;;;;;;;0.60;99.90;;;;;;4905814;29;19927;-78
2023/03/01 09:04:56;;;;;;;;;;;0.60;99.90;;;;;;4916559;29;19959;-78
2023/03/01 09:07:27;;;;;;;;;;;0.60;99.90;;;;;;4932952;29;19926;-78
2023/03/01 09:09:55;;;;;;;;;;;0.60;99.90;;;;;;4924274;29;20028;-77
2023/03/01 09:12:22;;;;;;;;;;;0.60;99.90;;;;;;4919614;29;20056;-78
2023/03/01 09:14:49;;;;;;;;;;;0.60;99.90;;;;;;4913296;29;20021;-78
2023/03/01 09:17:17;;;;;;;;;;;0.60;99.90;;;;;;4906086;29;20454;-78
2023/03/01 09:19:44;;;;;;;;;;;0.60;99.90;;;;;;4926016;29;19933;-78
2023/03/01 09:22:11;;;;;;;;;;;0.60;99.90;;;;;;4910945;29;20366;-77
2023/03/01 09:24:40;;;;;;;;;;;0.60;99.90;;;;;;4923725;29;20426;-78
2023/03/01 09:27:08;;;;;;;;;;;0.60;99.90;;;;;;4912493;29;20408;-78
2023/03/01 09:29:36;;;;;;;;;;;0.60;99.90;;;;;;4902440;29;19938;-79
2023/03/01 09:32:03;;;;;;;;;;;0.70;99.90;;;;;;4908328;29;20065;-77
2023/03/01 09:34:30;;;;;;;;;;;0.60;99.90;;;;;;4902599;29;19962;-77
2023/03/01 09:36:58;;;;;;;;;;;0.70;99.90;;;;;;4902663;29;20350;-78
2023/03/01 09:39:25;;;;;;;;;;;0.70;99.90;;;;;;4919965;29;19943;-77
2023/03/01 09:41:59;;;;;;;;;;;0.70;99.90;;;;;;4900194;29;20100;-77
2023/03/01 09:44:30;;;;;;;;;;;0.70;99.90;;;;;;4922451;29;19927;-77
2023/03/01 09:46:58;;;;;;;;;;;0.70;99.90;;;;;;4916309;29;20360;-76
2023/03/01 09:49:26;;;;;;;;;;;0.70;99.90;;;;;;4905406;29;19935;-77
2023/03/01 09:51:57;;;;;;;;;;;0.70;99.90;;;;;;4916374;29;19966;-76
2023/03/01 09:54:23;;;;;;;;;;;0.70;99.90;;;;;;4919206;29;19931;-77
2023/03/01 09:56:58;;;;;;;;;;;0.70;99.90;;;;;;4899468;29;20017;-77
2023/03/01 09:59:27;;;;;;;;;;;0.70;99.90;;;;;;4904816;29;20329;-77
2023/03/01 10:02:00;;;;;;;;;;;0.70;99.90;;;;;;4904368;29;19962;-76
2023/03/01 10:04:36;;;;;;;;;;;0.70;99.90;;;;;;4916431;29;19982;-77
2023/03/01 10:07:12;;;;;;;;;;;0.80;99.90;;;;;;4916035;29;19959;-77
2023/03/01 10:09:40;;;;;;;;;;;0.80;99.90;;;;;;4920019;29;19958;-76
2023/03/01 10:12:11;;;;;;;;;;;0.80;99.90;;;;;;4917933;29;19935;-78
2023/03/01 10:14:40;;;;;;;;;;;0.80;99.90;;;;;;4902615;29;19934;-76
2023/03/01 10:17:12;;;;;;;;;;;0.80;99.90;;;;;;4905587;29;20021;-77
2023/03/01 10:19:40;;;;;;;;;;;0.80;99.90;;;;;;4925312;29;20428;-76
2023/03/01 10:22:14;;;;;;;;;;;0.80;99.90;;;;;;4929365;29;19967;-77
2023/03/01 10:24:41;;;;;;;;;;;0.80;99.90;;;;;;4909144;29;19927;-77
2023/03/01 10:27:12;;;;;;;;;;;0.80;99.90;;;;;;4903015;29;20003;-77
2023/03/01 10:29:42;;;;;;;;;;;0.80;99.90;;;;;;4915926;29;19927;-77
2023/03/01 10:32:10;;;;;;;;;;;0.90;99.90;;;;;;4918201;29;20401;-77
2023/03/01 10:34:38;;;;;;;;;;;0.90;99.90;;;;;;4904330;29;20508;-77
2023/03/01 10:37:10;;;;;;;;;;;0.80;99.90;;;;;;4903863;29;19927;-76
2023/03/01 10:39:37;;;;;;;;;;;0.90;99.90;;;;;;4919365;29;19927;-76
2023/03/01 10:42:05;;;;;;;;;;;0.90;99.90;;;;;;4923223;29;19927;-76
2023/03/01 10:44:42;;;;;;;;;;;0.90;99.90;;;;;;4918570;29;19927;-77
2023/03/01 10:47:14;;;;;;;;;;;0.90;99.90;;;;;;4901524;29;19995;-77
2023/03/01 10:49:52;;;;;;;;;;;0.90;99.90;;;;;;4907541;29;19931;-77
2023/03/01 10:52:20;;;;;;;;;;;0.90;99.90;;;;;;4903822;29;19959;-77
2023/03/01 10:54:52;;;;;;;;;;;0.90;99.90;;;;;;4917075;29;20317;-77
2023/03/01 10:57:28;;;;;;;;;;;1.00;99.90;;;;;;4914160;29;19927;-78
2023/03/01 11:00:15;;;;;;;;;;;1.00;99.90;;;;;;4926665;29;19927;-77
2023/03/01 11:02:42;;;;;;;;;;;1.00;99.90;;;;;;4903420;29;19975;-76
2023/03/01 11:05:17;;;;;;;;;;;1.00;99.90;;;;;;4929499;29;19926;-78
2023/03/01 11:07:47;;;;;;;;;;;1.00;99.90;;;;;;4903427;29;19949;-77
2023/03/01 11:10:17;;;;;;;;;;;1.00;99.90;;;;;;4920256;29;19926;-77
2023/03/01 11:12:44;;;;;;;;;;;1.00;99.90;;;;;;4930461;29;19935;-77
2023/03/01 11:15:20;;;;;;;;;;;1.00;99.90;;;;;;4908978;29;19963;-77
2023/03/01 11:17:47;;;;;;;;;;;1.10;99.90;;;;;;4903987;29;20033;-77
2023/03/01 11:20:19;;;;;;;;;;;1.10;99.90;;;;;;4905083;29;19931;-77
2023/03/01 11:22:48;;;;;;;;;;;1.10;99.90;;;;;;4919466;29;19971;-76
2023/03/01 11:25:15;;;;;;;;;;;1.10;99.90;;;;;;4921627;29;19927;-77
2023/03/01 11:27:45;;;;;;;;;;;1.10;99.90;;;;;;4924952;29;20026;-77
2023/03/01 11:30:16;;;;;;;;;;;1.10;99.90;;;;;;4929238;29;20018;-77
2023/03/01 11:32:48;;;;;;;;;;;1.10;99.90;;;;;;4919501;29;19928;-77
2023/03/01 11:35:20;;;;;;;;;;;1.10;99.90;;;;;;4919019;29;19975;-76
2023/03/01 11:37:55;;;;;;;;;;;1.10;99.90;;;;;;4901830;29;19932;-77
2023/03/01 11:40:23;;;;;;;;;;;1.20;99.90;;;;;;4915893;29;20034;-77
2023/03/01 11:42:56;;;;;;;;;;;1.20;99.90;;;;;;4921113;29;19927;-77
2023/03/01 11:45:24;;;;;;;;;;;1.20;99.90;;;;;;4925427;29;20025;-77
2023/03/01 11:48:01;;;;;;;;;;;1.20;99.90;;;;;;4907499;29;19937;-77
2023/03/01 11:50:31;;;;;;;;;;;1.20;99.90;;;;;;4911000;29;19927;-76
2023/03/01 11:53:01;;;;;;;;;;;1.20;99.90;;;;;;4926406;29;19931;-77
2023/03/01 11:55:37;;;;;;;;;;;1.20;99.90;;;;;;4922797;29;19964;-78
2023/03/01 11:58:20;;;;;;;;;;;1.20;99.90;;;;;;4909421;29;20386;-78
2023/03/01 12:01:05;;;;;;;;;;;1.30;99.90;;;;;;4909754;29;19982;-77
2023/03/01 12:03:40;;;;;;;;;;;1.30;99.90;;;;;;4902235;29;20627;-78
2023/03/01 12:06:13;;;;;;;;;;;1.30;99.90;;;;;;4934867;29;19930;-77
2023/03/01 12:08:42;;;;;;;;;;;1.30;99.90;;;;;;4925554;29;20353;-77
2023/03/01 12:11:17;;;;;;;;;;;1.40;99.90;;;;;;4925069;29;19938;-77
2023/03/01 12:13:51;;;;;;;;;;;1.30;99.90;;;;;;4922271;29;19982;-76
2023/03/01 12:16:22;;;;;;;;;;;1.40;99.90;;;;;;4921310;29;19927;-76
2023/03/01 12:19:07;;;;;;;;;;;1.40;99.90;;;;;;4906494;29;20410;-76
2023/03/01 12:21:50;;;;;;;;;;;1.40;99.90;;;;;;4915383;29;19927;-77
2023/03/01 12:24:26;;;;;;;;;;;1.40;99.90;;;;;;4908656;29;20429;-76
2023/03/01 12:26:57;;;;;;;;;;;1.40;99.90;;;;;;4922878;29;19983;-76
2023/03/01 12:29:26;;;;;;;;;;;1.40;99.90;;;;;;4926465;29;20549;-75
2023/03/01 12:32:07;;;;;;;;;;;1.50;99.90;;;;;;4920614;29;20017;-77
2023/03/01 12:34:44;;;;;;;;;;;1.50;99.90;;;;;;4922010;29;19963;-77
2023/03/01 12:37:29;;;;;;;;;;;1.50;99.90;;;;;;4909734;29;19933;-77
2023/03/01 12:40:04;;;;;;;;;;;1.50;99.90;;;;;;4925687;29;19934;-76
2023/03/01 12:42:34;;;;;;;;;;;1.50;99.90;;;;;;4922342;29;19941;-76
2023/03/01 12:45:08;;;;;;;;;;;1.50;99.90;;;;;;4905962;29;20283;-76
2023/03/01 12:47:44;;;;;;;;;;;1.60;99.90;;;;;;4918840;29;20310;-76
2023/03/01 12:50:14;;;;;;;;;;;1.60;99.90;;;;;;4922308;29;19934;-78
2023/03/01 12:52:44;;;;;;;;;;;1.60;99.90;;;;;;4917245;29;19958;-76
2023/03/01 12:55:20;;;;;;;;;;;1.70;99.90;;;;;;4928675;29;19933;-76
2023/03/01 12:57:50;;;;;;;;;;;1.70;99.90;;;;;;4919645;29;20014;-77
2023/03/01 13:00:23;;;;;;;;;;;1.70;99.90;;;;;;4903675;29;19931;-77
2023/03/01 13:02:53;;;;;;;;;;;1.80;99.90;;;;;;4916236;29;20038;-75
2023/03/01 13:05:24;;;;;;;;;;;1.80;99.90;;;;;;4912348;29;19969;-77
2023/03/01 13:07:54;;;;;;;;;;;1.80;99.90;;;;;;4917060;29;20477;-76
2023/03/01 13:10:29;;;;;;;;;;;1.80;99.90;;;;;;4923140;29;19934;-76
2023/03/01 13:13:03;;;;;;;;;;;1.80;99.90;;;;;;4924275;29;20314;-76
2023/03/01 13:15:34;;;;;;;;;;;1.80;99.90;;;;;;4915582;29;20511;-75
2023/03/01 13:18:02;;;;;;;;;;;1.80;99.90;;;;;;4919237;29;19926;-76
2023/03/01 13:20:32;;;;;;;;;;;1.80;99.90;;;;;;4919002;29;19966;-77
2023/03/01 13:23:17;;;;;;;;;;;1.80;99.90;;;;;;4919076;29;20305;-76
2023/03/01 13:25:58;;;;;;;;;;;1.90;99.90;;;;;;4909089;29;19927;-76
2023/03/01 13:28:56;;;;;;;;;;;1.90;99.90;;;;;;4922200;29;19931;-75
2023/03/01 13:31:42;;;;;;;;;;;1.90;99.90;;;;;;4923959;29;19927;-75
2023/03/01 13:34:37;;;;;;;;;;;1.90;99.90;;;;;;4908573;29;19934;-76
2023/03/01 13:37:11;;;;;;;;;;;2.00;99.90;;;;;;4918827;29;19927;-78
2023/03/01 13:39:40;;;;;;;;;;;2.00;99.90;;;;;;4908563;29;19930;-76
2023/03/01 13:42:30;;;;;;;;;;;2.00;99.90;;;;;;4899863;29;19931;-77
2023/03/01 13:44:57;;;;;;;;;;;2.10;99.90;;;;;;4912706;29;19931;-78
2023/03/01 13:47:24;;;;;;;;;;;2.10;99.90;;;;;;4921409;29;19933;-76
2023/03/01 13:49:57;;;;;;;;;;;2.10;99.90;;;;;;4897951;29;20397;-76
2023/03/01 13:52:39;;;;;;;;;;;2.20;99.90;;;;;;4914836;29;19927;-76
2023/03/01 13:55:16;;;;;;;;;;;2.20;99.90;;;;;;4904213;29;19933;-76
2023/03/01 13:57:45;;;;;;;;;;;2.20;99.90;;;;;;4909544;29;20604;-76
2023/03/01 14:00:26;;;;;;;;;;;2.30;99.90;;;;;;4920988;29;19998;-75
2023/03/01 14:03:00;;;;;;;;;;;2.30;99.90;;;;;;4907404;29;20047;-75
2023/03/01 14:05:28;;;;;;;;;;;2.30;99.90;;;;;;4921723;29;19994;-77
2023/03/01 14:07:55;;;;;;;;;;;2.30;99.90;;;;;;4922933;29;20394;-77
2023/03/01 14:10:22;;;;;;;;;;;2.40;99.90;;;;;;4922014;29;19942;-76
2023/03/01 14:12:51;;;;;;;;;;;2.50;99.90;;;;;;4928909;29;19937;-75
2023/03/01 14:15:21;;;;;;;;;;;2.40;99.90;;;;;;4930408;29;19934;-75
2023/03/01 14:17:55;;;;;;;;;;;2.40;99.90;;;;;;4905609;29;20081;-76
2023/03/01 14:20:23;;;;;;;;;;;2.50;99.90;;;;;;4915161;29;20013;-76
2023/03/01 14:22:53;;;;;;;;;;;2.50;99.90;;;;;;4903148;29;19927;-77
2023/03/01 14:25:22;;;;;;;;;;;2.50;99.90;;;;;;4914611;29;19970;-75
2023/03/01 14:27:55;;;;;;;;;;;2.60;99.90;;;;;;4912341;29;19997;-78
2023/03/01 14:30:24;;;;;;;;;;;2.60;99.90;;;;;;4920616;29;19974;-77
2023/03/01 14:32:55;;;;;;;;;;;2.60;99.90;;;;;;4900941;29;19927;-76
2023/03/01 14:35:23;;;;;;;;;;;2.60;99.90;;;;;;4903545;29;20019;-77
2023/03/01 14:37:50;;;;;;;;;;;2.70;99.90;;;;;;4921271;29;19934;-77
2023/03/01 14:40:24;;;;;;;;;;;2.70;99.90;;;;;;4917885;29;19935;-76
2023/03/01 14:42:51;;;;;;;;;;;2.70;99.90;;;;;;4911059;29;19928;-77
2023/03/01 14:45:19;;;;;;;;;;;2.80;99.90;;;;;;4904420;29;19935;-75
2023/03/01 14:47:47;;;;;;;;;;;2.80;99.90;;;;;;4905694;29;19931;-76